Time;durP1;ratioP1;P1;durP2;ratioP2;P2;SDS_P1;SDS_P2;PMS_P1;PMS_P2;Temp;Humidity;BMP_temperature;BMP_pressure;BME280_temperature;BME280_humidity;BME280_pressure;Samples;Min_cycle;Max_cycle;Signal;HPM_P1;HPM_P2
2022/11/24 07:06:40;;;;;;;3.63;2.53;;;;;;;7.76;100.00;100514.13;5322890;27;1288156;-68
2022/11/24 07:09:13;;;;;;;7.15;2.30;;;;;;;7.76;100.00;100525.16;5343786;27;20512;-68
2022/11/24 07:11:44;;;;;;;6.50;3.95;;;;;;;7.70;100.00;100537.34;5342642;27;20450;-68
2022/11/24 07:14:15;;;;;;;9.63;2.38;;;;;;;7.71;100.00;100538.97;5343642;28;20110;-68
2022/11/24 07:16:47;;;;;;;4.53;2.33;;;;;;;7.69;100.00;100548.66;5343429;27;20023;-68
2022/11/24 07:19:18;;;;;;;5.95;2.25;;;;;;;7.74;100.00;100560.50;5343199;28;20102;-68
2022/11/24 07:21:49;;;;;;;7.18;2.22;;;;;;;7.75;100.00;100562.19;5343598;27;20038;-68
2022/11/24 07:24:21;;;;;;;4.57;2.33;;;;;;;7.79;100.00;100562.44;5343120;28;20114;-68
2022/11/24 07:26:52;;;;;;;5.35;1.98;;;;;;;7.79;100.00;100568.78;5342514;27;20031;-68
2022/11/24 07:29:23;;;;;;;6.07;2.10;;;;;;;7.81;100.00;100574.84;5343575;28;20377;-68
2022/11/24 07:31:54;;;;;;;6.38;2.45;;;;;;;7.84;100.00;100576.22;5342354;28;20027;-68
2022/11/24 07:34:26;;;;;;;7.75;2.33;;;;;;;7.82;100.00;100579.28;5343378;27;20031;-68
2022/11/24 07:37:00;;;;;;;5.53;2.40;;;;;;;7.81;100.00;100583.13;5342711;28;20507;-68
2022/11/24 07:39:31;;;;;;;7.43;2.70;;;;;;;7.78;100.00;100583.69;5324871;28;20016;-68
2022/11/24 07:42:04;;;;;;;5.65;1.90;;;;;;;7.78;100.00;100588.41;5321619;28;20027;-68
2022/11/24 07:44:35;;;;;;;5.03;2.63;;;;;;;7.80;100.00;100586.19;5321598;28;20373;-70
2022/11/24 07:47:06;;;;;;;6.20;2.10;;;;;;;7.78;100.00;100596.69;5320766;28;20098;-69
2022/11/24 07:49:38;;;;;;;6.40;2.35;;;;;;;7.76;100.00;100596.94;5336781;28;20015;-68
2022/11/24 07:52:09;;;;;;;7.72;2.10;;;;;;;7.70;100.00;100600.00;5342441;28;20590;-69
2022/11/24 07:54:42;;;;;;;4.72;2.05;;;;;;;7.69;100.00;100612.13;5341762;27;20026;-71
2022/11/24 07:57:14;;;;;;;5.97;2.10;;;;;;;7.70;100.00;100613.81;5342192;27;20064;-69
2022/11/24 07:59:45;;;;;;;6.10;2.15;;;;;;;7.70;100.00;100622.91;5342868;27;20598;-68
2022/11/24 08:02:16;;;;;;;7.15;2.70;;;;;;;7.70;100.00;100617.38;5340793;28;20028;-69
2022/11/24 08:04:48;;;;;;;5.70;3.05;;;;;;;7.71;100.00;100630.06;5341919;28;20050;-68
2022/11/24 08:07:22;;;;;;;6.47;2.25;;;;;;;7.80;100.00;100630.38;5341372;27;20024;-69
2022/11/24 08:09:53;;;;;;;6.15;2.35;;;;;;;7.82;100.00;100645.56;5342858;27;20028;-69
2022/11/24 08:12:31;;;;;;;7.05;2.72;;;;;;;7.82;100.00;100640.03;5342595;28;20036;-69
2022/11/24 08:15:06;;;;;;;6.25;2.20;;;;;;;7.81;100.00;100637.53;5341241;27;20118;-68
2022/11/24 08:17:37;;;;;;;7.50;2.20;;;;;;;7.77;100.00;100644.69;5330433;28;20462;-67
2022/11/24 08:20:09;;;;;;;6.25;2.72;;;;;;;7.73;100.00;100641.69;5328451;28;20066;-68
2022/11/24 08:22:41;;;;;;;7.45;2.70;;;;;;;7.75;100.00;100653.28;5327009;28;20035;-68
2022/11/24 08:25:14;;;;;;;6.78;2.22;;;;;;;7.72;100.00;100662.13;5328080;28;20024;-67
2022/11/24 08:27:45;;;;;;;6.30;2.63;;;;;;;7.82;100.00;100661.25;5326797;28;20020;-68
2022/11/24 08:30:16;;;;;;;6.95;3.00;;;;;;;7.88;100.00;100664.88;5326978;28;20024;-68
2022/11/24 08:32:48;;;;;;;7.60;2.95;;;;;;;7.88;99.86;100665.69;5327398;28;20382;-68
2022/11/24 08:35:19;;;;;;;7.22;2.55;;;;;;;7.90;99.49;100669.03;5327130;28;20084;-68
2022/11/24 08:37:51;;;;;;;5.65;2.88;;;;;;;7.89;99.97;100672.06;5327890;27;20020;-68
2022/11/24 08:40:22;;;;;;;6.50;2.83;;;;;;;7.91;99.31;100681.72;5327813;28;20019;-68
2022/11/24 08:42:57;;;;;;;9.63;3.17;;;;;;;7.95;100.00;100688.34;5327149;28;20077;-68
2022/11/24 08:45:28;;;;;;;8.57;3.10;;;;;;;7.97;99.29;100693.59;5327856;28;20062;-68
2022/11/24 08:48:00;;;;;;;7.85;2.22;;;;;;;7.97;99.77;100701.88;5327696;28;20039;-68
2022/11/24 08:50:34;;;;;;;8.27;2.70;;;;;;;8.02;99.30;100701.88;5326417;28;20097;-67
2022/11/24 08:53:08;;;;;;;8.35;3.10;;;;;;;8.07;99.19;100712.91;5326557;28;20103;-69
2022/11/24 08:55:39;;;;;;;8.23;3.97;;;;;;;8.04;98.65;100719.81;5326535;28;20458;-69
2022/11/24 08:58:11;;;;;;;11.63;3.20;;;;;;;8.07;98.91;100712.91;5326361;28;20024;-69
2022/11/24 09:00:42;;;;;;;8.40;3.28;;;;;;;8.09;99.06;100721.75;5327415;28;20059;-69
2022/11/24 09:03:14;;;;;;;6.38;2.70;;;;;;;8.09;99.02;100721.75;5325560;28;20383;-69
2022/11/24 09:05:45;;;;;;;9.27;2.90;;;;;;;8.13;99.16;100731.16;5326998;27;20039;-69
2022/11/24 09:08:16;;;;;;;9.65;2.70;;;;;;;8.19;99.17;100743.03;5327450;28;20036;-70
2022/11/24 09:10:47;;;;;;;7.05;3.10;;;;;;;8.16;98.68;100730.59;5326571;28;20023;-69
2022/11/24 09:13:19;;;;;;;12.38;3.90;;;;;;;8.23;99.54;100733.94;5327102;28;20020;-70
2022/11/24 09:15:50;;;;;;;12.27;4.80;;;;;;;8.24;98.60;100740.28;5326795;28;20151;-70
2022/11/24 09:18:21;;;;;;;17.98;10.90;;;;;;;8.22;98.74;100736.94;5325404;28;20052;-67
2022/11/24 09:20:56;;;;;;;10.15;3.05;;;;;;;8.25;99.01;100739.97;5326916;28;20030;-67
2022/11/24 09:23:27;;;;;;;8.82;3.33;;;;;;;8.26;98.70;100743.59;5327677;28;20118;-67
2022/11/24 09:26:10;;;;;;;8.40;3.40;;;;;;;8.34;99.11;100756.03;5326164;28;20114;-67
2022/11/24 09:28:42;;;;;;;8.73;3.75;;;;;;;8.30;99.21;100754.91;5326136;28;20020;-68
2022/11/24 09:31:16;;;;;;;8.88;3.45;;;;;;;8.37;99.38;100766.53;5326264;28;20041;-68
2022/11/24 09:33:51;;;;;;;9.18;3.38;;;;;;;8.37;99.31;100761.81;5326616;28;20381;-68
2022/11/24 09:36:23;;;;;;;8.77;3.30;;;;;;;8.42;98.89;100759.09;5326346;28;20069;-70
2022/11/24 09:38:54;;;;;;;8.10;3.10;;;;;;;8.46;99.30;100765.72;5324197;28;20031;-67
2022/11/24 09:42:03;;;;;;;9.23;4.15;;;;;;;8.50;98.80;100771.50;5326544;28;20032;-68
2022/11/24 09:44:59;;;;;;;11.82;3.20;;;;;;;8.51;99.08;100773.16;5329063;28;20032;-67
2022/11/24 09:47:42;;;;;;;11.52;3.70;;;;;;;8.54;98.38;100782.84;5326373;28;20104;-68
2022/11/24 09:50:17;;;;;;;14.05;4.70;;;;;;;8.56;98.80;100780.63;5326346;28;20068;-67
2022/11/24 09:53:13;;;;;;;18.27;4.97;;;;;;;8.64;98.50;100791.13;5325732;28;20486;-68
2022/11/24 09:55:57;;;;;;;12.05;3.17;;;;;;;8.68;97.20;100795.81;5328931;28;20020;-69
2022/11/24 09:58:42;;;;;;;11.88;3.63;;;;;;;8.71;98.64;100800.78;5328838;28;20363;-68
2022/11/24 10:01:35;;;;;;;14.30;4.10;;;;;;;8.77;98.07;100806.31;5330096;28;20032;-68
2022/11/24 10:04:34;;;;;;;11.77;3.83;;;;;;;8.80;97.72;100806.59;5329541;28;20020;-68
2022/11/24 10:07:20;;;;;;;10.38;3.97;;;;;;;8.82;97.30;100806.31;5328951;28;20486;-68
2022/11/24 10:09:57;;;;;;;11.55;4.22;;;;;;;8.88;97.02;100810.72;5332341;28;20028;-67
2022/11/24 10:12:43;;;;;;;15.38;4.43;;;;;;;8.93;97.52;100813.50;5332389;28;20050;-68
2022/11/24 10:15:35;;;;;;;9.45;4.35;;;;;;;8.93;96.73;100805.19;5330919;28;20028;-68
2022/11/24 10:18:25;;;;;;;14.38;4.10;;;;;;;8.97;96.76;100825.63;5331680;28;20032;-68
2022/11/24 10:20:59;;;;;;;12.98;5.05;;;;;;;8.98;96.79;100821.78;5331103;28;20166;-68
2022/11/24 10:23:46;;;;;;;15.07;3.85;;;;;;;9.06;96.51;100832.28;5307042;28;20458;-69
2022/11/24 10:26:42;;;;;;;14.88;3.58;;;;;;;9.06;96.69;100828.69;5305642;28;20047;-68
2022/11/24 10:29:27;;;;;;;;;;;;;;;9.13;95.81;100838.34;5325526;28;20420;-68
2022/11/24 10:32:02;;;;;;;11.18;3.92;;;;;;;9.09;95.38;100837.22;5325256;28;19923;-68
2022/11/24 10:34:38;;;;;;;8.60;3.75;;;;;;;9.08;94.91;100848.59;5326053;28;20020;-69
2022/11/24 10:37:09;;;;;;;10.63;3.85;;;;;;;9.10;95.39;100847.22;5322522;28;20374;-67
2022/11/24 10:39:49;;;;;;;9.93;3.03;;;;;;;9.11;95.41;100848.84;5322835;28;20115;-65
2022/11/24 10:42:32;;;;;;;10.85;2.85;;;;;;;9.22;95.75;100848.84;5321532;28;20073;-67
2022/11/24 10:45:21;;;;;;;11.07;3.45;;;;;;;9.26;95.66;100839.69;5323893;28;20059;-67
2022/11/24 10:47:58;;;;;;;12.90;4.80;;;;;;;9.25;94.89;100846.31;5325147;28;20122;-67
2022/11/24 10:50:39;;;;;;;8.52;3.30;;;;;;;9.33;95.12;100839.38;5322196;28;20012;-66
2022/11/24 10:53:19;;;;;;;10.32;4.28;;;;;;;9.26;94.96;100844.41;5324541;28;20032;-67
2022/11/24 10:55:53;;;;;;;10.15;4.47;;;;;;;9.36;95.01;100833.31;5321763;28;20060;-67
2022/11/24 10:58:32;;;;;;;10.15;4.18;;;;;;;9.36;95.14;100850.75;5325015;28;20367;-67
2022/11/24 11:01:15;;;;;;;15.48;6.45;;;;;;;9.44;94.81;100840.19;5323811;28;20024;-68
2022/11/24 11:03:54;;;;;;;11.05;4.22;;;;;;;9.49;94.35;100840.19;5322520;28;20125;-67
2022/11/24 11:06:29;;;;;;;12.00;3.78;;;;;;;9.52;94.42;100842.38;5324816;28;20048;-68
2022/11/24 11:09:09;;;;;;;13.68;3.80;;;;;;;9.55;94.03;100845.41;5324592;28;20023;-67
2022/11/24 11:11:41;;;;;;;15.55;3.90;;;;;;;9.63;94.25;100832.09;5324208;28;20019;-67
2022/11/24 11:14:34;;;;;;;9.45;3.20;;;;;;;9.70;94.12;100832.63;5324420;28;20020;-67
2022/11/24 11:17:24;;;;;;;10.60;3.83;;;;;;;9.77;94.26;100839.50;5323867;28;20012;-67
2022/11/24 11:20:01;;;;;;;8.98;3.40;;;;;;;9.80;92.98;100835.34;5324967;28;20107;-70
2022/11/24 11:22:36;;;;;;;11.55;3.75;;;;;;;9.79;92.38;100834.50;5312223;28;20028;-69
2022/11/24 11:25:10;;;;;;;18.63;5.55;;;;;;;9.87;92.33;100837.78;5302932;28;20485;-69
2022/11/24 11:27:42;;;;;;;14.32;4.10;;;;;;;9.90;91.74;100835.28;5304873;28;20493;-69
2022/11/24 11:30:23;;;;;;;11.55;3.95;;;;;;;9.91;91.69;100838.88;5324111;28;20020;-69
2022/11/24 11:32:57;;;;;;;12.57;4.10;;;;;;;9.93;90.58;100831.09;5324181;28;20050;-69
2022/11/24 11:35:34;;;;;;;10.23;4.03;;;;;;;10.00;91.60;100843.53;5323751;28;20038;-70
2022/11/24 11:38:09;;;;;;;9.23;4.97;;;;;;;10.07;91.91;100839.59;5319641;28;20020;-69
2022/11/24 11:40:42;;;;;;;17.40;8.27;;;;;;;10.09;90.87;100835.44;5323349;28;20558;-70
2022/11/24 11:43:25;;;;;;;13.93;3.40;;;;;;;10.16;90.80;100837.91;5324533;28;20023;-70
2022/11/24 11:46:11;;;;;;;11.75;4.85;;;;;;;10.22;89.97;100842.28;5323583;28;20031;-70
2022/11/24 11:48:45;;;;;;;17.05;5.40;;;;;;;10.21;88.82;100843.41;5324468;28;20040;-70
2022/11/24 11:51:43;;;;;;;11.10;3.90;;;;;;;10.28;89.91;100838.41;5325216;28;20480;-70
2022/11/24 11:54:50;;;;;;;9.48;3.13;;;;;;;10.38;90.16;100832.78;5326506;28;20031;-69
2022/11/24 11:57:52;;;;;;;11.85;4.18;;;;;;;10.44;89.56;100836.34;5328531;28;20030;-69
2022/11/24 12:00:24;;;;;;;22.85;12.43;;;;;;;10.45;89.74;100833.25;5328197;28;20031;-69
2022/11/24 12:03:07;;;;;;;12.68;4.15;;;;;;;10.51;89.04;100834.06;5328350;28;20024;-69
2022/11/24 12:05:46;;;;;;;13.85;3.45;;;;;;;10.59;88.13;100840.94;5307021;28;20083;-69
2022/11/24 12:08:54;;;;;;;10.98;3.60;;;;;;;10.64;87.27;100840.91;5306486;28;20485;-69
2022/11/24 12:11:40;;;;;;;13.15;5.18;;;;;;;10.69;87.39;100838.09;5319887;28;20360;-70
2022/11/24 12:14:16;;;;;;;;;;;;;;;10.75;87.48;100839.69;5328159;28;20046;-70
2022/11/24 12:17:05;;;;;;;12.60;3.58;;;;;;;10.73;86.78;100841.91;5328515;28;19916;-70
2022/11/24 12:19:59;;;;;;;8.70;3.35;;;;;;;10.80;87.38;100841.59;5328344;28;20028;-70
2022/11/24 12:22:49;;;;;;;12.93;3.88;;;;;;;10.78;86.62;100841.88;5306412;28;20032;-70
2022/11/24 12:25:39;;;;;;;10.02;3.80;;;;;;;10.83;86.79;100839.06;5306543;28;20020;-71
2022/11/24 12:28:38;;;;;;;11.25;3.92;;;;;;;10.83;85.93;100843.78;5305893;28;20059;-71
2022/11/24 12:31:19;;;;;;;14.40;5.15;;;;;;;10.85;86.61;100853.47;5307117;28;20347;-71
2022/11/24 12:34:20;;;;;;;13.48;3.83;;;;;;;10.85;86.94;100847.91;5306961;28;20024;-72
2022/11/24 12:37:28;;;;;;;11.80;3.40;;;;;;;10.88;87.52;100846.50;5298200;28;20043;-71
2022/11/24 12:40:08;;;;;;;11.75;6.03;;;;;;;10.90;87.01;100849.00;5328081;28;20027;-71
2022/11/24 12:43:07;;;;;;;13.25;5.85;;;;;;;11.04;90.56;100842.47;5325255;28;20059;-69
2022/11/24 12:45:44;;;;;;;14.40;4.13;;;;;;;10.94;87.16;100852.81;5319027;28;20035;-69
2022/11/24 12:48:21;;;;;;;9.45;3.70;;;;;;;10.98;86.34;100851.97;5325360;28;20020;-69
2022/11/24 12:50:54;;;;;;;16.00;3.58;;;;;;;10.97;86.27;100847.53;5325070;28;20038;-68
2022/11/24 12:53:32;;;;;;;11.30;4.40;;;;;;;10.96;86.10;100854.19;5327385;28;20049;-69
2022/11/24 12:56:08;;;;;;;15.48;4.70;;;;;;;11.04;86.71;100856.34;5326136;28;20020;-68
2022/11/24 12:58:53;;;;;;;20.60;5.40;;;;;;;11.02;85.69;100857.78;5327674;28;20023;-68
2022/11/24 13:01:44;;;;;;;13.23;3.42;;;;;;;11.05;85.54;100851.63;5327500;28;20451;-68
2022/11/24 13:04:35;;;;;;;16.13;3.45;;;;;;;11.02;85.42;100849.44;5326204;28;20024;-68
2022/11/24 13:07:15;;;;;;;11.25;3.65;;;;;;;11.05;85.78;100857.19;5326233;28;20047;-68
2022/11/24 13:10:23;;;;;;;9.93;3.28;;;;;;;11.20;88.83;100851.47;5326282;27;20482;-68
2022/11/24 13:13:12;;;;;;;11.45;4.45;;;;;;;11.20;86.05;100850.66;5327046;28;20111;-69
2022/11/24 13:15:52;;;;;;;14.90;3.40;;;;;;;11.19;85.08;100849.81;5326762;28;20028;-68
2022/11/24 13:18:42;;;;;;;15.68;4.03;;;;;;;11.26;86.03;100850.28;5326303;28;20027;-69
2022/11/24 13:21:26;;;;;;;10.27;3.50;;;;;;;11.30;85.92;100848.59;5326489;28;20027;-68
2022/11/24 13:24:19;;;;;;;13.70;3.03;;;;;;;11.34;83.94;100846.03;5326183;28;20084;-69
2022/11/24 13:27:15;;;;;;;7.47;4.60;;;;;;;11.36;84.78;100845.75;5305322;28;20059;-69
2022/11/24 13:29:49;;;;;;;10.68;3.30;;;;;;;11.49;84.66;100853.38;5317738;28;20168;-68
2022/11/24 13:32:20;;;;;;;11.88;3.88;;;;;;;11.65;85.98;100849.28;5325490;28;20022;-68
2022/11/24 13:34:54;;;;;;;17.63;3.92;;;;;;;11.61;84.40;100848.22;5326390;28;20114;-69
2022/11/24 13:37:26;;;;;;;9.05;4.88;;;;;;;11.76;84.32;100844.44;5326398;28;20031;-70
2022/11/24 13:39:59;;;;;;;12.55;3.83;;;;;;;11.73;83.65;100848.63;5325089;28;20479;-69
2022/11/24 13:42:31;;;;;;;11.35;3.85;;;;;;;11.74;82.19;100841.94;5326722;28;20019;-68
2022/11/24 13:45:24;;;;;;;9.15;3.42;;;;;;;11.84;82.80;100845.72;5324887;28;20054;-69
2022/11/24 13:47:55;;;;;;;9.32;3.15;;;;;;;11.74;81.80;100838.34;5326192;28;20084;-68
2022/11/24 13:50:48;;;;;;;14.95;4.47;;;;;;;11.79;82.18;100837.47;5326148;28;20063;-69
2022/11/24 13:53:31;;;;;;;10.20;3.75;;;;;;;11.70;82.35;100840.88;5324295;28;20066;-69
2022/11/24 13:56:07;;;;;;;14.85;3.75;;;;;;;11.72;82.26;100841.41;5322783;28;20347;-68
2022/11/24 13:58:57;;;;;;;12.15;3.55;;;;;;;11.79;82.47;100843.00;5326044;27;20031;-68
2022/11/24 14:01:34;;;;;;;12.30;4.03;;;;;;;11.78;82.30;100836.59;5325914;28;20451;-68
2022/11/24 14:04:25;;;;;;;10.45;3.53;;;;;;;11.82;82.70;100837.69;5325941;28;20367;-69
2022/11/24 14:07:05;;;;;;;10.43;3.58;;;;;;;11.83;81.93;100832.94;5324218;28;20043;-68
2022/11/24 14:09:41;;;;;;;8.30;3.25;;;;;;;11.81;82.17;100835.19;5326112;28;20509;-68
2022/11/24 14:12:23;;;;;;;8.73;4.28;;;;;;;11.88;83.07;100828.16;5325698;28;20084;-69
2022/11/24 14:15:34;;;;;;;11.00;3.33;;;;;;;11.78;82.41;100824.66;5323317;28;20089;-69
2022/11/24 14:18:28;;;;;;;17.92;7.05;;;;;;;11.82;82.15;100820.19;5315090;28;20115;-68
2022/11/24 14:21:17;;;;;;;10.52;3.85;;;;;;;11.77;82.67;100817.47;5324574;28;20125;-67
2022/11/24 14:23:55;;;;;;;10.75;5.03;;;;;;;11.75;82.02;100814.97;5325868;28;20031;-67
2022/11/24 14:26:35;;;;;;;11.85;4.03;;;;;;;11.67;82.29;100813.69;5324999;28;20062;-67
2022/11/24 14:29:13;;;;;;;12.20;3.45;;;;;;;11.55;82.37;100804.97;5324028;28;20534;-69
2022/11/24 14:31:55;;;;;;;9.02;3.75;;;;;;;11.58;82.43;100814.66;5325620;28;20030;-69
2022/11/24 14:34:28;;;;;;;9.77;3.55;;;;;;;11.48;83.01;100815.63;5324852;28;20420;-69
2022/11/24 14:37:00;;;;;;;14.55;7.40;;;;;;;11.44;83.08;100820.94;5324941;28;20082;-69
2022/11/24 14:39:39;;;;;;;17.08;5.30;;;;;;;11.42;83.61;100833.44;5325419;28;20054;-70
2022/11/24 14:42:26;;;;;;;10.57;3.42;;;;;;;11.36;84.57;100838.25;5323709;28;20028;-69
2022/11/24 14:45:02;;;;;;;11.70;3.20;;;;;;;11.34;84.22;100828.56;5325088;28;20481;-69
2022/11/24 14:47:43;;;;;;;15.45;3.50;;;;;;;11.38;84.57;100837.97;5322825;28;20026;-69
2022/11/24 14:50:18;;;;;;;12.38;5.00;;;;;;;11.31;83.52;100847.44;5324046;28;20034;-69
2022/11/24 14:52:57;;;;;;;20.60;5.60;;;;;;;11.34;84.12;100842.44;5324948;28;20051;-69
2022/11/24 14:55:30;;;;;;;14.25;5.07;;;;;;;11.25;84.83;100851.41;5302948;28;20483;-69
2022/11/24 14:58:19;;;;;;;14.73;4.68;;;;;;;11.28;85.14;100848.03;5303639;28;20024;-69
2022/11/24 15:01:07;;;;;;;9.38;3.97;;;;;;;11.41;86.46;100843.75;5320358;28;20074;-69
2022/11/24 15:03:39;;;;;;;10.00;3.35;;;;;;;11.28;85.64;100844.44;5324224;28;20065;-69
2022/11/24 15:06:18;;;;;;;13.60;3.83;;;;;;;11.30;86.37;100843.03;5324277;28;20052;-69
2022/11/24 15:08:49;;;;;;;14.70;3.67;;;;;;;11.28;85.48;100844.44;5324577;28;20028;-70
2022/11/24 15:11:21;;;;;;;14.38;3.65;;;;;;;11.11;85.03;100844.91;5324287;28;20026;-69
2022/11/24 15:13:53;;;;;;;11.27;4.40;;;;;;;11.21;86.07;100850.34;5324826;28;20034;-69
2022/11/24 15:16:27;;;;;;;7.68;3.50;;;;;;;11.24;87.37;100852.53;5324026;28;20085;-69
2022/11/24 15:19:00;;;;;;;13.13;3.55;;;;;;;11.08;85.40;100845.47;5325002;28;20402;-70
2022/11/24 15:21:33;;;;;;;15.05;4.95;;;;;;;11.03;86.58;100857.47;5324859;28;20031;-70
2022/11/24 15:24:16;;;;;;;12.48;4.32;;;;;;;11.05;86.68;100851.63;5323790;28;20084;-70
2022/11/24 15:26:58;;;;;;;13.65;4.47;;;;;;;11.00;86.53;100848.91;5325121;28;20024;-71
2022/11/24 15:29:29;;;;;;;68.15;52.05;;;;;;;10.88;86.68;100852.88;5307394;28;20051;-70
2022/11/24 15:32:00;;;;;;;16.25;9.45;;;;;;;10.85;86.11;100847.91;5306993;28;20066;-71
2022/11/24 15:34:32;;;;;;;14.00;4.65;;;;;;;10.86;86.72;100852.38;5308076;28;20386;-71
2022/11/24 15:37:03;;;;;;;15.23;4.22;;;;;;;10.79;86.86;100848.28;5306760;28;20048;-71
2022/11/24 15:39:34;;;;;;;13.95;4.40;;;;;;;10.74;86.58;100856.63;5309168;28;20020;-71
2022/11/24 15:42:08;;;;;;;17.17;5.78;;;;;;;10.70;87.17;100855.56;5328740;28;20089;-71
2022/11/24 15:44:39;;;;;;;11.13;4.55;;;;;;;10.59;87.16;100852.88;5328133;28;20026;-71
2022/11/24 15:47:10;;;;;;;11.00;4.43;;;;;;;10.67;86.93;100856.97;5328115;28;20024;-71
2022/11/24 15:49:41;;;;;;;11.57;4.50;;;;;;;10.54;87.27;100849.31;5328731;28;20019;-72
2022/11/24 15:52:17;;;;;;;11.70;4.07;;;;;;;10.59;87.01;100863.13;5327679;28;20030;-73
2022/11/24 15:54:52;;;;;;;13.20;5.45;;;;;;;10.58;88.07;100858.69;5328414;28;20091;-72
2022/11/24 15:57:24;;;;;;;;;;;;;;;10.71;87.60;100854.41;5328255;28;20035;-73
2022/11/24 15:59:59;;;;;;;17.67;5.85;;;;;;;10.59;88.08;100854.81;5323844;28;19922;-70
2022/11/24 16:02:30;;;;;;;15.07;6.72;;;;;;;10.53;87.96;100848.47;5327178;28;20020;-72
2022/11/24 16:05:01;;;;;;;14.30;5.80;;;;;;;10.54;88.09;100846.53;5326149;28;20524;-71
2022/11/24 16:07:33;;;;;;;15.25;6.13;;;;;;;10.54;88.55;100847.34;5326425;28;20165;-70
2022/11/24 16:10:12;;;;;;;15.88;4.97;;;;;;;10.42;88.99;100849.66;5328423;28;20024;-71
2022/11/24 16:12:43;;;;;;;16.30;6.50;;;;;;;10.37;87.75;100844.97;5326972;28;20027;-71
2022/11/24 16:15:14;;;;;;;20.38;6.15;;;;;;;10.32;87.92;100842.25;5327933;28;20053;-72
2022/11/24 16:17:46;;;;;;;10.63;4.85;;;;;;;10.34;88.30;100847.50;5328231;28;20022;-72
2022/11/24 16:20:18;;;;;;;15.23;6.35;;;;;;;10.32;88.25;100849.72;5326516;28;20042;-76
2022/11/24 16:22:50;;;;;;;13.23;5.38;;;;;;;10.27;88.97;100852.50;5327055;28;20024;-70
2022/11/24 16:25:21;;;;;;;12.90;6.00;;;;;;;10.30;89.02;100849.19;5327460;28;20108;-71
2022/11/24 16:27:52;;;;;;;18.90;5.18;;;;;;;10.32;88.51;100858.88;5326736;28;20026;-70
2022/11/24 16:30:23;;;;;;;12.73;3.95;;;;;;;10.27;89.31;100858.88;5327953;28;20055;-69
2022/11/24 16:32:55;;;;;;;17.60;5.40;;;;;;;10.32;88.27;100864.41;5327872;28;20377;-69
2022/11/24 16:35:26;;;;;;;12.93;5.78;;;;;;;10.25;88.62;100861.09;5326124;28;20495;-69
2022/11/24 16:37:57;;;;;;;24.98;14.07;;;;;;;10.19;88.29;100865.03;5327420;27;20477;-70
